Time;durP1;ratioP1;P1;durP2;ratioP2;P2;SDS_P1;SDS_P2;PMS_P1;PMS_P2;Temp;Humidity;BMP_temperature;BMP_pressure;BME280_temperature;BME280_humidity;BME280_pressure;Samples;Min_cycle;Max_cycle;Signal;HPM_P1;HPM_P2
2021/08/01 00:00:11;;;;;;;12.45;10.25;;;24.20;61.30;;;;;;5074097;28;20024;-62
2021/08/01 00:02:36;;;;;;;12.00;9.80;;;24.20;61.20;;;;;;5073826;28;20025;-62
2021/08/01 00:05:02;;;;;;;13.43;10.02;;;24.30;61.00;;;;;;5073727;28;20127;-62
2021/08/01 00:07:28;;;;;;;11.32;9.38;;;24.30;60.90;;;;;;5073721;28;20471;-62
2021/08/01 00:09:58;;;;;;;12.65;9.80;;;24.30;60.80;;;;;;5073759;28;20074;-61
2021/08/01 00:12:25;;;;;;;12.32;10.18;;;24.30;60.90;;;;;;5073688;28;20547;-62
2021/08/01 00:14:51;;;;;;;13.07;9.45;;;24.30;60.70;;;;;;5055749;28;20116;-63
2021/08/01 00:17:16;;;;;;;12.15;9.40;;;24.30;60.70;;;;;;5055735;28;20119;-62
2021/08/01 00:19:42;;;;;;;10.27;8.50;;;24.30;60.70;;;;;;5073633;28;20025;-62
2021/08/01 00:22:07;;;;;;;12.68;9.38;;;24.30;60.70;;;;;;5073331;28;20056;-62
2021/08/01 00:24:33;;;;;;;12.73;10.35;;;24.30;60.80;;;;;;5073693;28;20028;-61
2021/08/01 00:26:59;;;;;;;10.45;8.88;;;24.30;60.60;;;;;;5073767;28;20433;-62
2021/08/01 00:29:24;;;;;;;10.38;8.82;;;24.30;60.70;;;;;;5073352;28;20463;-62
2021/08/01 00:31:50;;;;;;;10.23;8.18;;;24.20;60.70;;;;;;5073169;28;20024;-61
2021/08/01 00:34:15;;;;;;;12.38;9.48;;;24.20;60.70;;;;;;5073433;28;20072;-62
2021/08/01 00:36:41;;;;;;;15.65;9.98;;;24.20;60.70;;;;;;5073286;28;20028;-62
2021/08/01 00:39:09;;;;;;;10.82;8.90;;;24.20;60.90;;;;;;5073152;28;20511;-62
2021/08/01 00:41:35;;;;;;;11.00;8.43;;;24.10;61.10;;;;;;5072956;28;20480;-62
2021/08/01 00:44:01;;;;;;;9.95;8.13;;;24.00;61.00;;;;;;5073143;28;20039;-62
2021/08/01 00:46:27;;;;;;;9.65;7.70;;;24.00;61.10;;;;;;5073155;28;20036;-62
2021/08/01 00:48:52;;;;;;;9.32;6.78;;;24.00;61.10;;;;;;5072954;28;20021;-62
2021/08/01 00:51:18;;;;;;;10.52;7.70;;;23.90;61.00;;;;;;5072980;28;20379;-62
2021/08/01 00:53:44;;;;;;;11.38;8.32;;;23.90;61.30;;;;;;5070798;28;20028;-62
2021/08/01 00:56:10;;;;;;;9.25;7.93;;;23.80;61.40;;;;;;5073002;28;20021;-62
2021/08/01 00:58:36;;;;;;;9.70;7.82;;;23.80;61.50;;;;;;5072949;28;20025;-63
2021/08/01 01:01:10;;;;;;;10.38;8.82;;;23.70;61.70;;;;;;5072705;28;20028;-62
2021/08/01 01:04:00;;;;;;;11.60;9.18;;;23.70;62.40;;;;;;5072567;28;20076;-62
2021/08/01 01:06:52;;;;;;;9.68;8.18;;;23.60;62.00;;;;;;5072762;28;20044;-62
2021/08/01 01:09:25;;;;;;;11.33;9.20;;;23.60;62.40;;;;;;5072524;28;20483;-62
2021/08/01 01:11:53;;;;;;;12.25;9.30;;;23.50;62.30;;;;;;5072511;28;20021;-62
2021/08/01 01:14:22;;;;;;;11.93;9.20;;;23.50;62.30;;;;;;5072587;28;20028;-62
2021/08/01 01:16:56;;;;;;;11.93;10.20;;;23.40;62.30;;;;;;5072756;28;20032;-61
2021/08/01 01:20:07;;;;;;;14.18;10.70;;;23.40;62.20;;;;;;5072518;28;20047;-63
2021/08/01 01:22:38;;;;;;;12.18;9.98;;;23.40;62.20;;;;;;5072183;28;20468;-63
2021/08/01 01:25:12;;;;;;;12.18;10.02;;;23.40;62.00;;;;;;5072198;28;20033;-62
2021/08/01 01:27:46;;;;;;;12.63;9.85;;;23.40;61.80;;;;;;5072254;28;20027;-63
2021/08/01 01:30:12;;;;;;;12.20;9.00;;;23.40;61.40;;;;;;5072306;28;20148;-61
2021/08/01 01:32:55;;;;;;;12.05;9.40;;;23.40;61.10;;;;;;5071864;28;20047;-62
2021/08/01 01:35:21;;;;;;;11.80;9.50;;;23.40;61.30;;;;;;5071942;28;20039;-61
2021/08/01 01:37:50;;;;;;;10.68;8.85;;;23.40;60.80;;;;;;5072102;28;20470;-61
2021/08/01 01:40:21;;;;;;;10.30;8.90;;;23.50;60.90;;;;;;5072111;28;20025;-63
2021/08/01 01:42:50;;;;;;;9.98;8.13;;;23.50;60.80;;;;;;5071786;28;20434;-62
2021/08/01 01:45:18;;;;;;;11.93;8.80;;;23.50;60.60;;;;;;5071881;28;20401;-62
2021/08/01 01:47:48;;;;;;;10.00;8.00;;;23.50;60.40;;;;;;5071834;28;20059;-62
2021/08/01 01:50:16;;;;;;;9.98;8.48;;;23.50;60.30;;;;;;5071777;28;20036;-62
2021/08/01 01:52:47;;;;;;;8.77;7.35;;;23.50;60.30;;;;;;5071619;28;20024;-62
2021/08/01 01:55:14;;;;;;;9.93;7.20;;;23.50;60.30;;;;;;5054042;28;20025;-62
2021/08/01 01:57:40;;;;;;;8.13;6.47;;;23.40;60.20;;;;;;5071846;28;20407;-62
2021/08/01 02:00:07;;;;;;;8.52;6.63;;;23.50;60.30;;;;;;5072080;28;20485;-62
2021/08/01 02:02:32;;;;;;;10.93;8.27;;;23.50;60.30;;;;;;5071747;28;20418;-63
2021/08/01 02:04:58;;;;;;;8.27;6.65;;;23.50;60.20;;;;;;5071518;28;20373;-61
2021/08/01 02:07:24;;;;;;;8.98;6.72;;;23.50;60.10;;;;;;5071502;28;20437;-61
2021/08/01 02:10:04;;;;;;;11.13;8.40;;;23.50;60.10;;;;;;5053689;28;20027;-62
2021/08/01 02:12:46;;;;;;;13.32;9.55;;;23.50;60.00;;;;;;5071480;28;20021;-61
2021/08/01 02:15:15;;;;;;;12.10;9.00;;;23.50;59.90;;;;;;5071436;28;20025;-62
2021/08/01 02:18:38;;;;;;;16.15;10.95;;;23.50;59.90;;;;;;5071532;28;20353;-62
2021/08/01 02:21:05;;;;;;;15.02;9.98;;;23.50;59.90;;;;;;4951304;29;20239;-62
2021/08/01 02:23:41;;;;;;;17.10;10.90;;;23.50;60.00;;;;;;4951105;29;20038;-62
2021/08/01 02:26:11;;;;;;;22.52;14.57;;;23.50;60.00;;;;;;5032932;28;20071;-62
2021/08/01 02:28:38;;;;;;;20.80;12.98;;;23.50;60.00;;;;;;5071299;28;20021;-62
2021/08/01 02:31:06;;;;;;;23.80;16.45;;;23.50;60.00;;;;;;5071186;28;20025;-62
2021/08/01 02:33:32;;;;;;;22.98;15.48;;;23.50;60.00;;;;;;5071321;28;20036;-62
2021/08/01 02:36:02;;;;;;;20.40;13.40;;;23.60;60.10;;;;;;5071123;28;20484;-62
2021/08/01 02:38:29;;;;;;;21.85;14.93;;;23.50;60.10;;;;;;5071419;28;20101;-62
2021/08/01 02:40:58;;;;;;;24.98;16.27;;;23.50;60.40;;;;;;5071154;28;20025;-62
2021/08/01 02:43:27;;;;;;;25.60;16.60;;;23.50;60.40;;;;;;5071005;28;20158;-62
2021/08/01 02:45:53;;;;;;;19.15;13.93;;;23.60;60.40;;;;;;5070958;28;20029;-62
2021/08/01 02:48:21;;;;;;;18.35;13.13;;;23.50;60.40;;;;;;5071011;28;20024;-62
2021/08/01 02:50:52;;;;;;;17.65;12.70;;;23.50;60.50;;;;;;5071168;28;20031;-62
2021/08/01 02:53:19;;;;;;;15.52;12.00;;;23.50;60.60;;;;;;5071314;28;20454;-62
2021/08/01 02:55:48;;;;;;;13.82;11.20;;;23.50;60.60;;;;;;5071997;28;20399;-61
2021/08/01 02:58:14;;;;;;;16.67;12.48;;;23.50;60.40;;;;;;5071010;28;20024;-63
2021/08/01 03:00:43;;;;;;;13.30;11.05;;;23.50;60.10;;;;;;5071103;28;20036;-61
2021/08/01 03:03:10;;;;;;;14.77;10.20;;;23.60;60.00;;;;;;5070843;28;20090;-62
2021/08/01 03:05:36;;;;;;;12.38;9.23;;;23.60;60.10;;;;;;5070999;28;20045;-61
2021/08/01 03:08:05;;;;;;;14.13;10.38;;;23.60;60.00;;;;;;5070867;28;20024;-61
2021/08/01 03:10:31;;;;;;;12.50;9.90;;;23.70;60.00;;;;;;5070899;28;20414;-62
2021/08/01 03:12:56;;;;;;;12.43;9.38;;;23.80;59.70;;;;;;5070711;28;20078;-62
2021/08/01 03:15:22;;;;;;;12.38;10.98;;;23.80;59.70;;;;;;5071073;28;20020;-62
2021/08/01 03:17:48;;;;;;;13.15;10.98;;;23.80;59.70;;;;;;5072942;28;20029;-61
2021/08/01 03:20:13;;;;;;;14.07;11.30;;;23.90;59.60;;;;;;5074746;28;20025;-62
2021/08/01 03:22:39;;;;;;;12.43;10.20;;;23.90;59.70;;;;;;5074527;28;20086;-61
2021/08/01 03:25:05;;;;;;;14.32;11.68;;;23.90;59.60;;;;;;5074798;28;20029;-62
2021/08/01 03:27:31;;;;;;;14.30;12.75;;;24.00;59.60;;;;;;5074623;28;20066;-61
2021/08/01 03:29:56;;;;;;;12.93;10.77;;;24.10;59.70;;;;;;5074513;28;20020;-62
2021/08/01 03:32:22;;;;;;;11.88;10.10;;;24.10;59.70;;;;;;5074222;28;20029;-62
2021/08/01 03:34:49;;;;;;;13.93;11.82;;;24.10;59.70;;;;;;5074427;28;20448;-64
2021/08/01 03:37:15;;;;;;;13.98;11.43;;;24.20;59.50;;;;;;5074463;28;20025;-62
2021/08/01 03:39:41;;;;;;;11.65;10.32;;;24.30;59.50;;;;;;5074298;28;20411;-61
2021/08/01 03:42:06;;;;;;;13.57;10.98;;;24.30;59.50;;;;;;5074236;28;20033;-62
2021/08/01 03:44:32;;;;;;;13.25;11.00;;;24.50;59.60;;;;;;5074115;28;20391;-62
2021/08/01 03:46:58;;;;;;;12.80;11.02;;;24.50;59.50;;;;;;5074127;28;20043;-63
2021/08/01 03:49:24;;;;;;;13.27;10.40;;;24.60;59.30;;;;;;5074212;28;20025;-62
2021/08/01 03:51:49;;;;;;;13.15;10.77;;;24.60;59.20;;;;;;5074092;28;20025;-62
2021/08/01 03:54:15;;;;;;;12.68;10.90;;;24.70;59.30;;;;;;5074255;28;20383;-62
2021/08/01 03:56:44;;;;;;;14.13;10.95;;;24.70;59.40;;;;;;5056385;28;20016;-62
2021/08/01 03:59:11;;;;;;;12.13;10.65;;;24.80;59.40;;;;;;5073740;28;20032;-62
2021/08/01 04:01:37;;;;;;;12.13;10.00;;;24.80;59.40;;;;;;5073908;28;20025;-62
2021/08/01 04:04:04;;;;;;;12.00;10.32;;;24.80;59.50;;;;;;5073962;28;20115;-62
2021/08/01 04:06:30;;;;;;;15.35;10.65;;;24.80;59.80;;;;;;5073874;28;20032;-62
2021/08/01 04:08:56;;;;;;;12.77;10.63;;;24.80;60.00;;;;;;5073828;28;20032;-62
2021/08/01 04:11:21;;;;;;;12.98;10.35;;;24.80;60.00;;;;;;5074024;28;20052;-62
2021/08/01 04:13:47;;;;;;;12.15;10.43;;;24.90;60.10;;;;;;5073773;28;20553;-62
2021/08/01 04:16:13;;;;;;;14.90;10.63;;;24.90;60.00;;;;;;5073811;28;20467;-61
2021/08/01 04:18:38;;;;;;;13.27;10.40;;;24.90;60.20;;;;;;5073637;28;20107;-61
2021/08/01 04:21:09;;;;;;;11.85;10.50;;;24.80;60.50;;;;;;5073758;28;20029;-61
2021/08/01 04:23:35;;;;;;;12.80;10.93;;;24.80;60.80;;;;;;5073497;28;20027;-63
2021/08/01 04:26:02;;;;;;;13.25;10.85;;;24.80;61.40;;;;;;5073490;28;20035;-63
2021/08/01 04:28:27;;;;;;;13.55;11.15;;;24.80;61.90;;;;;;5072514;28;20056;-63
2021/08/01 04:30:53;;;;;;;13.25;11.20;;;24.80;62.00;;;;;;5072883;28;20075;-61
2021/08/01 04:33:19;;;;;;;12.18;10.77;;;24.80;61.80;;;;;;5073339;28;20021;-62
2021/08/01 04:35:45;;;;;;;13.32;10.88;;;24.80;61.80;;;;;;5073312;28;20136;-63
2021/08/01 04:38:10;;;;;;;10.70;9.27;;;24.80;62.00;;;;;;5073211;28;20021;-61
2021/08/01 04:40:36;;;;;;;11.55;8.77;;;24.80;61.80;;;;;;5073188;28;20029;-61
2021/08/01 04:43:01;;;;;;;12.43;9.45;;;24.90;61.80;;;;;;5072987;28;20040;-61
2021/08/01 04:45:27;;;;;;;10.45;8.27;;;25.00;61.80;;;;;;5073161;28;20024;-62
2021/08/01 04:47:53;;;;;;;12.73;10.65;;;25.00;61.70;;;;;;5072962;28;20368;-62
2021/08/01 04:50:18;;;;;;;11.88;9.38;;;25.20;61.90;;;;;;5073106;28;20035;-62
2021/08/01 04:52:44;;;;;;;13.65;11.02;;;25.20;61.80;;;;;;5072898;28;20417;-62
2021/08/01 04:55:10;;;;;;;11.98;10.18;;;25.40;61.60;;;;;;5072955;28;20024;-62
2021/08/01 04:57:36;;;;;;;13.85;11.25;;;25.30;61.50;;;;;;5073030;28;20364;-63
2021/08/01 05:00:06;;;;;;;11.98;10.50;;;25.40;61.60;;;;;;5072866;28;20028;-62
2021/08/01 05:02:32;;;;;;;16.10;11.57;;;25.50;61.60;;;;;;5072829;28;20025;-63
2021/08/01 05:05:00;;;;;;;12.30;11.00;;;25.60;61.30;;;;;;5072502;28;20047;-61
2021/08/01 05:07:26;;;;;;;13.25;10.90;;;25.70;61.30;;;;;;5072557;28;20429;-62
2021/08/01 05:09:51;;;;;;;13.18;11.07;;;25.80;60.80;;;;;;5072335;28;20103;-63
2021/08/01 05:12:17;;;;;;;13.35;10.77;;;26.00;60.80;;;;;;5072269;28;20025;-62
2021/08/01 05:14:45;;;;;;;14.18;11.40;;;26.00;60.90;;;;;;5071087;28;20029;-62
2021/08/01 05:17:11;;;;;;;14.25;11.77;;;26.10;60.70;;;;;;5072472;28;20037;-61
2021/08/01 05:19:41;;;;;;;12.90;9.80;;;26.20;60.70;;;;;;5072551;28;20475;-63
2021/08/01 05:22:07;;;;;;;13.15;10.82;;;26.20;60.70;;;;;;5072074;28;20032;-61
2021/08/01 05:24:41;;;;;;;13.82;11.32;;;26.30;60.70;;;;;;5072206;28;20024;-61
2021/08/01 05:27:07;;;;;;;12.32;10.73;;;26.50;60.80;;;;;;5072241;28;20066;-63
2021/08/01 05:29:33;;;;;;;11.13;9.93;;;26.60;60.60;;;;;;5072132;28;20115;-62
2021/08/01 05:31:59;;;;;;;11.50;9.70;;;26.70;60.40;;;;;;5071886;28;20048;-63
2021/08/01 05:34:24;;;;;;;11.38;9.50;;;26.70;60.30;;;;;;5072085;28;20048;-62
2021/08/01 05:36:51;;;;;;;11.50;9.77;;;26.90;60.30;;;;;;5071886;28;20103;-63
2021/08/01 05:39:16;;;;;;;14.38;11.70;;;27.00;60.20;;;;;;5072026;28;20032;-62
2021/08/01 05:41:42;;;;;;;11.82;10.63;;;27.20;59.90;;;;;;5071513;28;20033;-63
2021/08/01 05:44:08;;;;;;;11.73;10.52;;;27.30;59.80;;;;;;5071894;28;20025;-63
2021/08/01 05:46:34;;;;;;;13.38;11.52;;;27.30;59.70;;;;;;5071983;28;20387;-62
2021/08/01 05:48:59;;;;;;;12.93;11.50;;;27.40;59.60;;;;;;5071804;28;20040;-63
2021/08/01 05:51:25;;;;;;;14.68;11.85;;;27.40;59.50;;;;;;5072190;28;20103;-62
2021/08/01 05:53:51;;;;;;;13.15;11.70;;;27.50;59.30;;;;;;5071656;28;20379;-63
2021/08/01 05:56:17;;;;;;;13.82;10.82;;;27.60;59.40;;;;;;5071776;28;20447;-63
2021/08/01 05:58:42;;;;;;;13.48;10.88;;;27.60;59.40;;;;;;5071564;28;20476;-63
2021/08/01 06:01:12;;;;;;;11.25;9.05;;;27.80;59.40;;;;;;5071871;28;20150;-63
2021/08/01 06:03:42;;;;;;;10.75;9.65;;;28.00;59.50;;;;;;5071292;28;20035;-61
2021/08/01 06:06:18;;;;;;;14.35;10.48;;;28.30;59.10;;;;;;5071875;28;20028;-62
2021/08/01 06:08:46;;;;;;;12.30;9.95;;;28.60;57.70;;;;;;5071442;28;20032;-63
2021/08/01 06:11:12;;;;;;;11.00;9.13;;;28.90;57.70;;;;;;5071686;28;20017;-63
2021/08/01 06:13:38;;;;;;;12.30;11.05;;;29.10;57.40;;;;;;5071302;28;20020;-63
2021/08/01 06:16:10;;;;;;;14.27;11.82;;;29.40;56.40;;;;;;5071455;28;20028;-62
2021/08/01 06:18:36;;;;;;;13.05;11.70;;;29.50;56.10;;;;;;5071256;28;20020;-62
2021/08/01 06:21:09;;;;;;;15.82;12.32;;;29.60;55.90;;;;;;5071123;28;20059;-62
2021/08/01 06:23:36;;;;;;;13.10;11.45;;;29.70;55.40;;;;;;5071406;28;20020;-63
2021/08/01 06:26:03;;;;;;;11.27;9.23;;;29.80;55.70;;;;;;5071138;28;20024;-66
2021/08/01 06:28:31;;;;;;;14.18;10.50;;;29.80;55.90;;;;;;5071142;28;20081;-64
2021/08/01 06:30:58;;;;;;;14.90;10.90;;;30.00;55.70;;;;;;5071131;28;20464;-63
2021/08/01 06:33:23;;;;;;;10.80;9.15;;;30.10;55.20;;;;;;5071130;28;20426;-62
2021/08/01 06:35:49;;;;;;;11.45;9.18;;;30.20;55.30;;;;;;5071285;28;20025;-62
2021/08/01 06:38:15;;;;;;;10.15;9.00;;;30.30;54.80;;;;;;5071454;28;20398;-62
2021/08/01 06:40:42;;;;;;;9.88;8.85;;;30.20;54.10;;;;;;5071012;28;20468;-61
2021/08/01 06:43:07;;;;;;;10.13;8.20;;;30.20;53.90;;;;;;5071130;28;20043;-63
2021/08/01 06:45:33;;;;;;;9.82;8.00;;;30.10;53.70;;;;;;5071104;28;20024;-62
2021/08/01 06:47:58;;;;;;;9.45;7.90;;;30.00;53.50;;;;;;5070761;28;20028;-62
2021/08/01 06:50:24;;;;;;;9.43;8.20;;;29.90;53.70;;;;;;5071057;28;20062;-62
2021/08/01 06:52:50;;;;;;;9.38;7.93;;;30.00;53.70;;;;;;5072926;28;20383;-62
2021/08/01 06:55:15;;;;;;;11.93;8.63;;;30.00;53.10;;;;;;5075282;28;20028;-64
2021/08/01 06:57:41;;;;;;;9.90;8.73;;;30.00;53.10;;;;;;5075279;28;20023;-63
2021/08/01 07:00:07;;;;;;;10.65;8.25;;;30.10;53.10;;;;;;5075388;28;20418;-63
2021/08/01 07:02:33;;;;;;;8.65;7.75;;;30.20;53.30;;;;;;5074799;28;20070;-62
2021/08/01 07:04:59;;;;;;;13.85;8.65;;;30.20;53.40;;;;;;5074791;28;20480;-62
2021/08/01 07:07:25;;;;;;;10.90;8.18;;;30.30;53.30;;;;;;5075479;28;20112;-63
2021/08/01 07:09:50;;;;;;;8.07;6.80;;;30.50;53.20;;;;;;5074995;28;20028;-63
2021/08/01 07:12:19;;;;;;;8.88;7.60;;;30.50;53.10;;;;;;5075063;28;20064;-63
2021/08/01 07:14:47;;;;;;;9.82;7.55;;;30.60;53.00;;;;;;5075110;28;20029;-63
2021/08/01 07:17:13;;;;;;;10.40;8.10;;;30.70;52.10;;;;;;5074784;28;20456;-63
2021/08/01 07:19:39;;;;;;;11.45;8.52;;;30.70;51.00;;;;;;5075244;28;20039;-64
2021/08/01 07:22:04;;;;;;;9.25;7.75;;;30.60;50.60;;;;;;5075384;28;20036;-64
2021/08/01 07:24:30;;;;;;;9.27;7.80;;;30.60;50.70;;;;;;5074410;28;20047;-65
2021/08/01 07:26:56;;;;;;;8.82;7.60;;;30.60;51.10;;;;;;5074558;28;20037;-62
2021/08/01 07:29:24;;;;;;;11.40;7.80;;;30.70;51.20;;;;;;5074329;28;20032;-63
2021/08/01 07:31:50;;;;;;;10.23;8.90;;;30.80;50.50;;;;;;5074396;28;20059;-62
2021/08/01 07:34:16;;;;;;;10.10;7.63;;;30.80;50.80;;;;;;5074623;28;20048;-63
2021/08/01 07:36:41;;;;;;;8.95;7.35;;;30.80;51.00;;;;;;5074366;28;20125;-63
2021/08/01 07:39:07;;;;;;;9.88;7.47;;;30.80;51.40;;;;;;5074212;28;20032;-64
2021/08/01 07:41:33;;;;;;;8.50;7.40;;;31.00;51.50;;;;;;5056285;28;20036;-62
2021/08/01 07:43:58;;;;;;;8.50;7.05;;;31.10;51.40;;;;;;5074206;28;20403;-64
2021/08/01 07:46:24;;;;;;;9.18;7.28;;;31.20;51.50;;;;;;5074245;28;20031;-62
2021/08/01 07:48:49;;;;;;;11.35;7.60;;;31.40;50.80;;;;;;5074063;28;20029;-63
2021/08/01 07:51:15;;;;;;;11.07;7.97;;;31.40;49.60;;;;;;5074145;28;20028;-63
2021/08/01 07:53:41;;;;;;;9.93;7.75;;;31.50;49.40;;;;;;5074119;28;20147;-63
2021/08/01 07:56:06;;;;;;;8.70;6.72;;;31.50;49.60;;;;;;5074035;28;20352;-63
2021/08/01 07:58:32;;;;;;;9.77;6.90;;;31.50;50.00;;;;;;5073921;28;20025;-63
2021/08/01 08:00:58;;;;;;;8.32;7.05;;;31.60;49.50;;;;;;5073964;28;20036;-63
2021/08/01 08:03:24;;;;;;;9.95;6.75;;;31.70;49.40;;;;;;5074011;28;20032;-63
2021/08/01 08:05:51;;;;;;;8.73;7.10;;;32.00;49.00;;;;;;5073886;28;20552;-64
2021/08/01 08:08:17;;;;;;;9.50;7.00;;;32.30;47.40;;;;;;5074591;28;20031;-64
2021/08/01 08:10:43;;;;;;;9.05;6.90;;;32.40;46.80;;;;;;5073721;28;20026;-64
2021/08/01 08:13:09;;;;;;;9.63;7.43;;;32.60;46.50;;;;;;5073732;28;20112;-63
2021/08/01 08:15:35;;;;;;;9.82;6.95;;;32.70;46.40;;;;;;5074216;28;20029;-63
2021/08/01 08:18:00;;;;;;;12.50;6.88;;;32.90;46.70;;;;;;5073761;28;20031;-62
2021/08/01 08:20:26;;;;;;;9.30;6.95;;;33.10;46.10;;;;;;5073536;28;20028;-63
2021/08/01 08:22:52;;;;;;;9.27;6.95;;;33.20;46.30;;;;;;5073446;28;20031;-63
2021/08/01 08:25:17;;;;;;;7.97;6.13;;;33.50;44.90;;;;;;5073329;28;20052;-63
2021/08/01 08:27:43;;;;;;;7.57;6.63;;;33.50;44.80;;;;;;5073168;28;20030;-63
2021/08/01 08:30:09;;;;;;;7.72;6.63;;;33.60;44.30;;;;;;5073255;28;20079;-63
2021/08/01 08:32:35;;;;;;;9.35;6.22;;;33.60;44.10;;;;;;5073506;28;20020;-63
2021/08/01 08:35:02;;;;;;;7.88;6.40;;;33.70;44.20;;;;;;5073084;28;20475;-63
2021/08/01 08:37:28;;;;;;;8.60;6.40;;;33.80;44.10;;;;;;5073148;28;20020;-62
2021/08/01 08:39:53;;;;;;;8.23;6.07;;;33.90;43.20;;;;;;5073166;28;20077;-62
2021/08/01 08:42:19;;;;;;;8.55;6.68;;;33.90;44.00;;;;;;5073120;28;20067;-63
2021/08/01 08:44:45;;;;;;;9.70;6.45;;;34.30;42.80;;;;;;5072939;28;20028;-63
2021/08/01 08:47:17;;;;;;;10.07;6.15;;;34.30;43.00;;;;;;5072955;28;20499;-64
2021/08/01 08:49:47;;;;;;;10.80;6.60;;;34.50;42.60;;;;;;5072973;28;20056;-63
2021/08/01 08:52:13;;;;;;;9.95;6.28;;;34.60;42.60;;;;;;5072811;28;20024;-63
2021/08/01 08:54:44;;;;;;;7.22;5.68;;;34.60;43.40;;;;;;5072876;28;20017;-63
2021/08/01 08:57:20;;;;;;;8.38;6.63;;;34.90;43.30;;;;;;5072567;28;20028;-63
2021/08/01 08:59:47;;;;;;;8.10;6.57;;;35.40;41.80;;;;;;5072967;28;20523;-63
2021/08/01 09:02:14;;;;;;;8.35;5.97;;;35.40;41.70;;;;;;5072782;28;20418;-62
2021/08/01 09:04:41;;;;;;;10.35;6.28;;;35.40;42.10;;;;;;5071574;28;20678;-63
2021/08/01 09:07:07;;;;;;;9.38;6.28;;;35.50;42.40;;;;;;5072843;28;20479;-63
2021/08/01 09:09:32;;;;;;;7.72;5.70;;;35.80;40.70;;;;;;5072635;28;20437;-64
2021/08/01 09:11:58;;;;;;;8.05;5.82;;;36.00;39.60;;;;;;5072798;28;20475;-63
2021/08/01 09:14:24;;;;;;;8.07;6.00;;;35.90;40.60;;;;;;5072354;28;20103;-63
2021/08/01 09:16:51;;;;;;;8.60;6.13;;;35.90;40.20;;;;;;5072484;28;20025;-63
2021/08/01 09:19:26;;;;;;;8.90;6.03;;;36.00;40.40;;;;;;5072454;28;20035;-63
2021/08/01 09:21:53;;;;;;;8.25;6.07;;;35.90;40.30;;;;;;5072162;28;20020;-63
2021/08/01 09:24:19;;;;;;;9.50;6.53;;;36.00;39.90;;;;;;5072286;28;20456;-63
2021/08/01 09:26:53;;;;;;;7.32;6.13;;;36.10;41.00;;;;;;5070890;28;20115;-63
2021/08/01 09:29:19;;;;;;;8.07;6.70;;;36.10;40.70;;;;;;5072177;28;20031;-63
2021/08/01 09:31:45;;;;;;;10.52;6.35;;;36.30;40.90;;;;;;5071986;28;20031;-63
2021/08/01 09:34:43;;;;;;;7.20;6.13;;;36.50;39.90;;;;;;5072177;28;20438;-63
2021/08/01 09:37:09;;;;;;;8.45;6.45;;;36.60;39.60;;;;;;5071600;28;20032;-63
2021/08/01 09:39:39;;;;;;;8.38;6.28;;;36.80;39.70;;;;;;5071993;28;20035;-63
2021/08/01 09:42:06;;;;;;;8.70;5.65;;;36.90;39.40;;;;;;5072184;28;20040;-64
2021/08/01 09:44:35;;;;;;;7.90;5.75;;;37.00;37.80;;;;;;5072664;28;20032;-63
2021/08/01 09:47:00;;;;;;;8.45;5.47;;;37.10;37.40;;;;;;5072007;28;20476;-62
2021/08/01 09:49:30;;;;;;;7.03;5.60;;;37.00;38.00;;;;;;5071888;28;20051;-64
2021/08/01 09:52:03;;;;;;;8.95;5.88;;;37.10;38.00;;;;;;5071729;28;20024;-64
2021/08/01 09:54:50;;;;;;;7.20;5.80;;;37.20;38.30;;;;;;5071799;28;20046;-64
2021/08/01 09:57:18;;;;;;;8.38;6.07;;;36.80;38.70;;;;;;5071802;28;20033;-64
2021/08/01 09:59:47;;;;;;;6.78;5.53;;;36.80;38.90;;;;;;5071477;28;20410;-63
2021/08/01 10:02:13;;;;;;;8.05;6.10;;;36.80;39.20;;;;;;5053811;28;20106;-64
2021/08/01 10:04:42;;;;;;;8.38;5.53;;;37.10;39.10;;;;;;5071568;28;20465;-64
2021/08/01 10:07:12;;;;;;;7.57;5.55;;;37.00;38.70;;;;;;5054073;28;20468;-63
2021/08/01 10:09:42;;;;;;;6.57;5.22;;;36.90;38.40;;;;;;5071466;28;20044;-63
2021/08/01 10:12:08;;;;;;;8.13;5.40;;;37.30;38.70;;;;;;5071082;28;20082;-63
2021/08/01 10:14:35;;;;;;;7.35;5.10;;;37.80;36.90;;;;;;5071437;28;20099;-62
2021/08/01 10:17:01;;;;;;;9.23;5.07;;;37.90;36.40;;;;;;5071449;28;20452;-63
2021/08/01 10:19:27;;;;;;;7.32;5.03;;;38.10;36.10;;;;;;5071022;28;20036;-63
2021/08/01 10:21:57;;;;;;;6.65;5.00;;;38.20;36.00;;;;;;5071300;28;20024;-64
2021/08/01 10:24:25;;;;;;;6.40;5.05;;;38.20;36.10;;;;;;5071344;28;20024;-64
2021/08/01 10:26:53;;;;;;;7.07;4.43;;;38.30;35.80;;;;;;5070354;28;20025;-64
2021/08/01 10:29:32;;;;;;;7.90;4.97;;;38.40;36.40;;;;;;5071096;28;20555;-64
2021/08/01 10:32:04;;;;;;;6.68;4.80;;;38.60;35.70;;;;;;5071136;28;20029;-64
2021/08/01 10:34:40;;;;;;;7.07;4.82;;;38.60;35.60;;;;;;5071259;28;20017;-64
2021/08/01 10:37:07;;;;;;;6.28;4.88;;;38.40;36.00;;;;;;5071043;28;20534;-63
2021/08/01 10:39:35;;;;;;;7.32;5.05;;;38.40;35.80;;;;;;5071191;28;20017;-63
2021/08/01 10:42:07;;;;;;;8.05;5.22;;;38.80;35.60;;;;;;5070954;28;20048;-64
2021/08/01 10:44:35;;;;;;;7.13;5.88;;;38.70;36.10;;;;;;5069728;28;20383;-63
2021/08/01 10:47:05;;;;;;;6.88;5.30;;;38.50;36.50;;;;;;5071049;28;20381;-63
2021/08/01 10:49:35;;;;;;;6.20;5.00;;;38.40;36.80;;;;;;5070963;28;20431;-63
2021/08/01 10:52:16;;;;;;;6.50;4.70;;;38.60;36.90;;;;;;5070791;28;20256;-63
2021/08/01 10:54:55;;;;;;;7.35;5.22;;;38.50;37.30;;;;;;5071169;28;20021;-63
2021/08/01 10:57:22;;;;;;;7.93;5.00;;;38.80;37.40;;;;;;5071555;28;20025;-63
2021/08/01 10:59:53;;;;;;;6.75;4.97;;;39.20;37.80;;;;;;5071216;28;20032;-63
2021/08/01 11:02:22;;;;;;;;;;;39.80;37.40;;;;;;5071417;28;20020;-64
2021/08/01 11:04:51;;;;;;;7.63;5.90;;;39.90;36.30;;;;;;5070529;28;19994;-63
2021/08/01 11:07:26;;;;;;;7.45;6.03;;;39.90;36.50;;;;;;5070786;28;20036;-62
2021/08/01 11:10:07;;;;;;;10.27;5.75;;;39.30;37.10;;;;;;5070591;28;20383;-63
2021/08/01 11:12:37;;;;;;;8.48;5.13;;;38.90;36.60;;;;;;5070432;28;20013;-63
2021/08/01 11:15:05;;;;;;;7.73;5.23;;;38.80;37.10;;;;;;5070585;28;20059;-63
2021/08/01 11:17:42;;;;;;;7.40;4.90;;;39.00;36.10;;;;;;5070683;28;20113;-63
2021/08/01 11:20:21;;;;;;;7.70;5.45;;;39.20;35.60;;;;;;5070465;28;20025;-62
2021/08/01 11:22:46;;;;;;;6.38;5.00;;;39.50;35.90;;;;;;5070310;28;20024;-64
2021/08/01 11:25:28;;;;;;;7.47;5.50;;;39.30;36.40;;;;;;5070648;28;20027;-64
2021/08/01 11:28:09;;;;;;;6.90;5.35;;;39.40;36.40;;;;;;5070379;28;20102;-63
2021/08/01 11:30:50;;;;;;;6.60;5.32;;;39.40;36.60;;;;;;5070822;28;20024;-63
2021/08/01 11:33:39;;;;;;;7.80;5.68;;;39.30;36.50;;;;;;5052378;28;20074;-63
2021/08/01 11:36:15;;;;;;;7.03;5.28;;;39.30;36.30;;;;;;5070576;28;20049;-63
2021/08/01 11:38:59;;;;;;;7.15;5.30;;;39.40;36.20;;;;;;5054171;28;20094;-63
2021/08/01 11:41:27;;;;;;;6.65;5.35;;;39.30;36.50;;;;;;5074677;28;20052;-63
2021/08/01 11:44:04;;;;;;;6.90;5.50;;;39.40;36.70;;;;;;5074941;28;20059;-63
2021/08/01 11:46:52;;;;;;;7.35;5.28;;;39.80;36.50;;;;;;5074207;28;20529;-64
2021/08/01 11:49:22;;;;;;;7.55;5.63;;;40.00;37.20;;;;;;5074035;28;20027;-64
2021/08/01 11:51:48;;;;;;;7.68;5.00;;;40.10;36.80;;;;;;5073953;28;20025;-64
2021/08/01 11:54:16;;;;;;;7.53;5.20;;;40.70;36.50;;;;;;5074090;28;20364;-63
2021/08/01 11:56:43;;;;;;;8.80;5.60;;;41.30;36.40;;;;;;5073999;28;20070;-63
2021/08/01 11:59:12;;;;;;;7.45;5.13;;;41.80;34.80;;;;;;5074113;28;20063;-63
2021/08/01 12:01:39;;;;;;;7.13;4.82;;;41.80;34.70;;;;;;5073920;28;20495;-63
2021/08/01 12:04:09;;;;;;;5.97;4.85;;;41.40;35.10;;;;;;5073775;28;20053;-63
2021/08/01 12:06:35;;;;;;;7.15;4.93;;;41.10;34.90;;;;;;5073727;28;20035;-63
2021/08/01 12:09:31;;;;;;;8.10;5.20;;;40.90;34.90;;;;;;5073799;28;20045;-63
2021/08/01 12:12:02;;;;;;;6.47;4.85;;;40.80;34.00;;;;;;5056985;28;20043;-63
2021/08/01 12:14:36;;;;;;;7.43;5.13;;;40.50;34.40;;;;;;5073493;28;20108;-63
2021/08/01 12:17:03;;;;;;;8.27;5.00;;;40.50;34.80;;;;;;5073977;28;20067;-63
2021/08/01 12:19:49;;;;;;;7.43;4.70;;;40.60;34.90;;;;;;5073649;28;20495;-63
2021/08/01 12:22:19;;;;;;;5.85;4.50;;;41.20;34.70;;;;;;5073658;28;20033;-64
2021/08/01 12:24:51;;;;;;;5.75;4.40;;;41.80;34.50;;;;;;5073542;28;20024;-64
2021/08/01 12:27:18;;;;;;;6.15;4.50;;;42.40;33.90;;;;;;5073851;28;20112;-64
2021/08/01 12:29:55;;;;;;;6.55;4.65;;;43.00;32.50;;;;;;5073763;28;20021;-64
2021/08/01 12:32:23;;;;;;;5.95;4.50;;;42.80;32.80;;;;;;5073144;28;20068;-63
2021/08/01 12:34:50;;;;;;;6.32;4.40;;;42.40;33.30;;;;;;5073414;28;20021;-63
2021/08/01 12:37:16;;;;;;;7.47;4.50;;;42.70;32.90;;;;;;5073317;28;20074;-64
2021/08/01 12:39:51;;;;;;;8.27;4.40;;;42.30;32.70;;;;;;5073318;28;20021;-63
2021/08/01 12:42:18;;;;;;;7.15;4.63;;;42.30;32.80;;;;;;5073178;28;20024;-64
2021/08/01 12:44:54;;;;;;;6.80;4.43;;;42.30;32.90;;;;;;5073241;28;20539;-64